sensor_id;sensor_type;location;lat;lon;timestamp;P1;durP1;ratioP1;P2;durP2;ratioP2
71629;SDS011;59479;51.902;8.212;2023-05-10T00:02:21;8.23;;;4.50;;
71629;SDS011;59479;51.902;8.212;2023-05-10T00:04:47;8.50;;;4.33;;
71629;SDS011;59479;51.902;8.212;2023-05-10T00:07:13;7.53;;;3.83;;
71629;SDS011;59479;51.902;8.212;2023-05-10T00:09:38;7.55;;;4.10;;
71629;SDS011;59479;51.902;8.212;2023-05-10T00:12:03;7.00;;;4.20;;
71629;SDS011;59479;51.902;8.212;2023-05-10T00:14:29;7.57;;;4.37;;
71629;SDS011;59479;51.902;8.212;2023-05-10T00:16:55;8.73;;;4.47;;
71629;SDS011;59479;51.902;8.212;2023-05-10T00:19:20;7.50;;;4.17;;
71629;SDS011;59479;51.902;8.212;2023-05-10T00:21:45;9.07;;;4.83;;
71629;SDS011;59479;51.902;8.212;2023-05-10T00:24:11;8.00;;;4.47;;
71629;SDS011;59479;51.902;8.212;2023-05-10T00:26:36;8.00;;;4.40;;
71629;SDS011;59479;51.902;8.212;2023-05-10T00:29:01;7.60;;;4.27;;
71629;SDS011;59479;51.902;8.212;2023-05-10T00:31:27;8.80;;;4.50;;
71629;SDS011;59479;51.902;8.212;2023-05-10T00:33:52;7.57;;;4.20;;
71629;SDS011;59479;51.902;8.212;2023-05-10T00:36:18;7.87;;;4.13;;
71629;SDS011;59479;51.902;8.212;2023-05-10T00:38:43;7.43;;;4.20;;
71629;SDS011;59479;51.902;8.212;2023-05-10T00:41:08;9.33;;;4.67;;
71629;SDS011;59479;51.902;8.212;2023-05-10T00:43:34;9.33;;;4.63;;
71629;SDS011;59479;51.902;8.212;2023-05-10T00:45:59;8.02;;;4.78;;
71629;SDS011;59479;51.902;8.212;2023-05-10T00:48:25;9.27;;;4.37;;
71629;SDS011;59479;51.902;8.212;2023-05-10T00:50:50;7.87;;;4.23;;
71629;SDS011;59479;51.902;8.212;2023-05-10T00:53:16;7.73;;;4.50;;
71629;SDS011;59479;51.902;8.212;2023-05-10T00:55:41;7.75;;;4.50;;
71629;SDS011;59479;51.902;8.212;2023-05-10T00:58:07;8.87;;;4.60;;
71629;SDS011;59479;51.902;8.212;2023-05-10T01:00:33;8.17;;;4.37;;
71629;SDS011;59479;51.902;8.212;2023-05-10T01:02:59;8.15;;;4.50;;
71629;SDS011;59479;51.902;8.212;2023-05-10T01:05:25;9.60;;;4.70;;
71629;SDS011;59479;51.902;8.212;2023-05-10T01:07:52;8.38;;;4.63;;
71629;SDS011;59479;51.902;8.212;2023-05-10T01:10:17;7.90;;;4.00;;
71629;SDS011;59479;51.902;8.212;2023-05-10T01:12:43;8.57;;;4.53;;
71629;SDS011;59479;51.902;8.212;2023-05-10T01:15:11;9.48;;;4.60;;
71629;SDS011;59479;51.902;8.212;2023-05-10T01:17:38;9.18;;;4.60;;
71629;SDS011;59479;51.902;8.212;2023-05-10T01:20:05;8.65;;;4.50;;
71629;SDS011;59479;51.902;8.212;2023-05-10T01:34:20;7.03;;;3.47;;
71629;SDS011;59479;51.902;8.212;2023-05-10T01:37:07;6.43;;;3.33;;
71629;SDS011;59479;51.902;8.212;2023-05-10T01:42:23;5.82;;;2.90;;
71629;SDS011;59479;51.902;8.212;2023-05-10T01:44:55;5.50;;;2.97;;
71629;SDS011;59479;51.902;8.212;2023-05-10T01:47:36;7.40;;;3.33;;
71629;SDS011;59479;51.902;8.212;2023-05-10T01:50:06;6.90;;;3.20;;
71629;SDS011;59479;51.902;8.212;2023-05-10T01:52:42;5.18;;;2.60;;
71629;SDS011;59479;51.902;8.212;2023-05-10T01:55:11;6.15;;;2.67;;
71629;SDS011;59479;51.902;8.212;2023-05-10T01:57:41;6.97;;;3.55;;
71629;SDS011;59479;51.902;8.212;2023-05-10T02:00:09;7.32;;;2.95;;
71629;SDS011;59479;51.902;8.212;2023-05-10T02:02:37;7.53;;;3.50;;
71629;SDS011;59479;51.902;8.212;2023-05-10T02:05:07;6.78;;;3.20;;
71629;SDS011;59479;51.902;8.212;2023-05-10T02:07:34;7.28;;;3.28;;
71629;SDS011;59479;51.902;8.212;2023-05-10T02:10:01;7.78;;;3.40;;
71629;SDS011;59479;51.902;8.212;2023-05-10T02:12:29;6.80;;;3.80;;
71629;SDS011;59479;51.902;8.212;2023-05-10T02:14:56;8.53;;;4.00;;
71629;SDS011;59479;51.902;8.212;2023-05-10T02:17:24;7.78;;;3.90;;
71629;SDS011;59479;51.902;8.212;2023-05-10T02:19:50;8.38;;;3.92;;
71629;SDS011;59479;51.902;8.212;2023-05-10T02:22:17;7.90;;;3.80;;
71629;SDS011;59479;51.902;8.212;2023-05-10T02:24:44;7.32;;;3.78;;
71629;SDS011;59479;51.902;8.212;2023-05-10T02:27:10;10.03;;;4.33;;
71629;SDS011;59479;51.902;8.212;2023-05-10T02:29:37;8.43;;;4.20;;
71629;SDS011;59479;51.902;8.212;2023-05-10T02:32:03;7.90;;;3.97;;
71629;SDS011;59479;51.902;8.212;2023-05-10T02:34:29;7.45;;;3.70;;
71629;SDS011;59479;51.902;8.212;2023-05-10T02:36:56;9.05;;;4.00;;
71629;SDS011;59479;51.902;8.212;2023-05-10T02:39:21;8.43;;;4.40;;
71629;SDS011;59479;51.902;8.212;2023-05-10T02:41:48;8.80;;;4.20;;
71629;SDS011;59479;51.902;8.212;2023-05-10T02:44:16;9.30;;;4.40;;
71629;SDS011;59479;51.902;8.212;2023-05-10T02:46:43;9.48;;;4.03;;
71629;SDS011;59479;51.902;8.212;2023-05-10T02:49:09;9.37;;;4.00;;
71629;SDS011;59479;51.902;8.212;2023-05-10T02:51:35;8.02;;;4.18;;
71629;SDS011;59479;51.902;8.212;2023-05-10T02:54:18;7.78;;;4.25;;
71629;SDS011;59479;51.902;8.212;2023-05-10T02:56:54;9.35;;;4.22;;
71629;SDS011;59479;51.902;8.212;2023-05-10T02:59:22;9.00;;;4.15;;
71629;SDS011;59479;51.902;8.212;2023-05-10T03:01:47;8.50;;;3.67;;
71629;SDS011;59479;51.902;8.212;2023-05-10T03:04:13;6.57;;;3.20;;
71629;SDS011;59479;51.902;8.212;2023-05-10T03:06:38;8.27;;;3.57;;
71629;SDS011;59479;51.902;8.212;2023-05-10T03:09:04;5.85;;;3.40;;
71629;SDS011;59479;51.902;8.212;2023-05-10T03:14:29;6.18;;;2.83;;
71629;SDS011;59479;51.902;8.212;2023-05-10T03:19:56;4.72;;;2.50;;
71629;SDS011;59479;51.902;8.212;2023-05-10T03:22:24;5.25;;;2.20;;
71629;SDS011;59479;51.902;8.212;2023-05-10T03:24:53;4.20;;;1.90;;
71629;SDS011;59479;51.902;8.212;2023-05-10T03:27:22;4.07;;;2.00;;
71629;SDS011;59479;51.902;8.212;2023-05-10T03:29:50;3.30;;;1.10;;
71629;SDS011;59479;51.902;8.212;2023-05-10T03:32:16;5.13;;;1.55;;
71629;SDS011;59479;51.902;8.212;2023-05-10T03:34:42;3.40;;;1.40;;
71629;SDS011;59479;51.902;8.212;2023-05-10T03:37:10;3.65;;;1.58;;
71629;SDS011;59479;51.902;8.212;2023-05-10T03:39:35;4.23;;;1.20;;
71629;SDS011;59479;51.902;8.212;2023-05-10T03:42:01;2.78;;;1.20;;
71629;SDS011;59479;51.902;8.212;2023-05-10T03:44:26;2.60;;;0.90;;
71629;SDS011;59479;51.902;8.212;2023-05-10T03:46:52;3.30;;;1.20;;
71629;SDS011;59479;51.902;8.212;2023-05-10T03:49:17;5.03;;;1.30;;
71629;SDS011;59479;51.902;8.212;2023-05-10T03:51:42;2.63;;;1.00;;
71629;SDS011;59479;51.902;8.212;2023-05-10T03:54:08;3.00;;;1.23;;
71629;SDS011;59479;51.902;8.212;2023-05-10T03:56:33;3.73;;;1.30;;
71629;SDS011;59479;51.902;8.212;2023-05-10T03:58:58;3.10;;;1.43;;
71629;SDS011;59479;51.902;8.212;2023-05-10T04:01:24;3.20;;;1.47;;
71629;SDS011;59479;51.902;8.212;2023-05-10T04:03:49;3.33;;;1.70;;
71629;SDS011;59479;51.902;8.212;2023-05-10T04:06:14;3.42;;;1.60;;
71629;SDS011;59479;51.902;8.212;2023-05-10T04:08:40;3.30;;;1.20;;
71629;SDS011;59479;51.902;8.212;2023-05-10T04:11:08;3.30;;;1.37;;
71629;SDS011;59479;51.902;8.212;2023-05-10T04:13:35;3.37;;;1.80;;
71629;SDS011;59479;51.902;8.212;2023-05-10T04:16:01;3.50;;;1.42;;
71629;SDS011;59479;51.902;8.212;2023-05-10T04:18:26;3.40;;;1.60;;
71629;SDS011;59479;51.902;8.212;2023-05-10T04:20:52;3.50;;;1.90;;
71629;SDS011;59479;51.902;8.212;2023-05-10T04:23:17;3.50;;;1.60;;
71629;SDS011;59479;51.902;8.212;2023-05-10T04:25:42;4.28;;;1.73;;
71629;SDS011;59479;51.902;8.212;2023-05-10T04:28:08;3.67;;;1.70;;
71629;SDS011;59479;51.902;8.212;2023-05-10T04:30:33;3.83;;;1.60;;
71629;SDS011;59479;51.902;8.212;2023-05-10T04:32:59;5.45;;;2.10;;
71629;SDS011;59479;51.902;8.212;2023-05-10T04:35:25;3.23;;;1.30;;
71629;SDS011;59479;51.902;8.212;2023-05-10T04:37:51;3.45;;;1.40;;
71629;SDS011;59479;51.902;8.212;2023-05-10T04:40:16;3.47;;;1.60;;
71629;SDS011;59479;51.902;8.212;2023-05-10T04:42:42;3.97;;;1.50;;
71629;SDS011;59479;51.902;8.212;2023-05-10T04:45:08;3.65;;;1.75;;
71629;SDS011;59479;51.902;8.212;2023-05-10T04:47:34;3.50;;;1.60;;
71629;SDS011;59479;51.902;8.212;2023-05-10T04:50:00;3.77;;;1.67;;
71629;SDS011;59479;51.902;8.212;2023-05-10T04:52:25;3.50;;;1.60;;
71629;SDS011;59479;51.902;8.212;2023-05-10T04:54:51;3.45;;;1.40;;
71629;SDS011;59479;51.902;8.212;2023-05-10T04:57:16;3.67;;;1.63;;
71629;SDS011;59479;51.902;8.212;2023-05-10T04:59:41;2.97;;;1.37;;
71629;SDS011;59479;51.902;8.212;2023-05-10T05:02:07;4.13;;;2.00;;
71629;SDS011;59479;51.902;8.212;2023-05-10T05:04:33;5.00;;;1.60;;
71629;SDS011;59479;51.902;8.212;2023-05-10T05:06:58;4.15;;;1.70;;
71629;SDS011;59479;51.902;8.212;2023-05-10T05:09:23;4.43;;;1.47;;
71629;SDS011;59479;51.902;8.212;2023-05-10T05:11:48;3.60;;;1.80;;
71629;SDS011;59479;51.902;8.212;2023-05-10T05:14:14;3.20;;;1.43;;
71629;SDS011;59479;51.902;8.212;2023-05-10T05:16:39;5.47;;;1.70;;
71629;SDS011;59479;51.902;8.212;2023-05-10T05:19:05;3.10;;;1.20;;
71629;SDS011;59479;51.902;8.212;2023-05-10T05:21:30;3.57;;;1.87;;
71629;SDS011;59479;51.902;8.212;2023-05-10T05:23:57;3.65;;;1.77;;
71629;SDS011;59479;51.902;8.212;2023-05-10T05:26:22;5.30;;;1.90;;
71629;SDS011;59479;51.902;8.212;2023-05-10T05:28:47;3.73;;;1.60;;
71629;SDS011;59479;51.902;8.212;2023-05-10T05:31:13;6.03;;;1.65;;
71629;SDS011;59479;51.902;8.212;2023-05-10T05:33:39;3.73;;;1.67;;
71629;SDS011;59479;51.902;8.212;2023-05-10T05:36:04;3.43;;;1.30;;
71629;SDS011;59479;51.902;8.212;2023-05-10T05:38:30;4.10;;;1.60;;
71629;SDS011;59479;51.902;8.212;2023-05-10T05:40:56;3.70;;;1.60;;
71629;SDS011;59479;51.902;8.212;2023-05-10T05:43:21;4.20;;;1.90;;
71629;SDS011;59479;51.902;8.212;2023-05-10T05:45:47;3.70;;;1.60;;
71629;SDS011;59479;51.902;8.212;2023-05-10T05:48:12;3.50;;;1.70;;
71629;SDS011;59479;51.902;8.212;2023-05-10T05:50:37;4.07;;;1.40;;
71629;SDS011;59479;51.902;8.212;2023-05-10T05:53:03;3.33;;;1.93;;
71629;SDS011;59479;51.902;8.212;2023-05-10T05:55:28;3.47;;;1.48;;
71629;SDS011;59479;51.902;8.212;2023-05-10T05:57:54;4.70;;;1.73;;
71629;SDS011;59479;51.902;8.212;2023-05-10T06:00:19;3.77;;;1.80;;
71629;SDS011;59479;51.902;8.212;2023-05-10T06:02:46;3.78;;;1.88;;
71629;SDS011;59479;51.902;8.212;2023-05-10T06:05:12;3.25;;;1.42;;
71629;SDS011;59479;51.902;8.212;2023-05-10T06:07:38;4.57;;;1.98;;
71629;SDS011;59479;51.902;8.212;2023-05-10T06:10:07;4.68;;;2.00;;
71629;SDS011;59479;51.902;8.212;2023-05-10T06:12:32;4.20;;;2.10;;
71629;SDS011;59479;51.902;8.212;2023-05-10T06:14:58;4.13;;;2.17;;
71629;SDS011;59479;51.902;8.212;2023-05-10T06:17:23;4.00;;;2.10;;
71629;SDS011;59479;51.902;8.212;2023-05-10T06:19:49;4.68;;;2.10;;
71629;SDS011;59479;51.902;8.212;2023-05-10T06:22:14;4.33;;;2.37;;
71629;SDS011;59479;51.902;8.212;2023-05-10T06:24:40;5.80;;;2.13;;
71629;SDS011;59479;51.902;8.212;2023-05-10T06:27:05;3.40;;;1.70;;
71629;SDS011;59479;51.902;8.212;2023-05-10T06:29:31;3.80;;;2.00;;
71629;SDS011;59479;51.902;8.212;2023-05-10T06:31:56;4.83;;;2.50;;
71629;SDS011;59479;51.902;8.212;2023-05-10T06:34:21;4.67;;;2.10;;
71629;SDS011;59479;51.902;8.212;2023-05-10T06:36:47;5.47;;;2.33;;
71629;SDS011;59479;51.902;8.212;2023-05-10T06:39:12;5.10;;;2.50;;
71629;SDS011;59479;51.902;8.212;2023-05-10T06:41:37;6.80;;;2.33;;
71629;SDS011;59479;51.902;8.212;2023-05-10T06:44:03;6.90;;;2.70;;
71629;SDS011;59479;51.902;8.212;2023-05-10T06:46:28;6.83;;;3.07;;
71629;SDS011;59479;51.902;8.212;2023-05-10T06:48:54;8.47;;;3.47;;
71629;SDS011;59479;51.902;8.212;2023-05-10T06:51:19;9.97;;;3.37;;
71629;SDS011;59479;51.902;8.212;2023-05-10T06:53:46;7.90;;;3.72;;
71629;SDS011;59479;51.902;8.212;2023-05-10T06:56:11;9.07;;;3.80;;
71629;SDS011;59479;51.902;8.212;2023-05-10T06:58:36;7.90;;;3.43;;
71629;SDS011;59479;51.902;8.212;2023-05-10T07:01:03;8.85;;;3.88;;
71629;SDS011;59479;51.902;8.212;2023-05-10T07:03:29;7.47;;;3.83;;
71629;SDS011;59479;51.902;8.212;2023-05-10T07:05:59;13.20;;;4.30;;
71629;SDS011;59479;51.902;8.212;2023-05-10T07:08:28;12.40;;;4.97;;
71629;SDS011;59479;51.902;8.212;2023-05-10T07:10:58;13.52;;;4.85;;
71629;SDS011;59479;51.902;8.212;2023-05-10T07:13:28;12.43;;;5.20;;
71629;SDS011;59479;51.902;8.212;2023-05-10T07:15:54;14.27;;;4.78;;
71629;SDS011;59479;51.902;8.212;2023-05-10T07:18:19;16.40;;;5.77;;
71629;SDS011;59479;51.902;8.212;2023-05-10T07:20:45;14.47;;;5.63;;
71629;SDS011;59479;51.902;8.212;2023-05-10T07:23:10;14.53;;;5.60;;
71629;SDS011;59479;51.902;8.212;2023-05-10T07:25:35;18.15;;;5.68;;
71629;SDS011;59479;51.902;8.212;2023-05-10T07:28:01;15.37;;;5.90;;
71629;SDS011;59479;51.902;8.212;2023-05-10T07:30:26;16.33;;;6.13;;
71629;SDS011;59479;51.902;8.212;2023-05-10T07:32:51;20.87;;;6.73;;
71629;SDS011;59479;51.902;8.212;2023-05-10T07:35:17;14.93;;;6.43;;
71629;SDS011;59479;51.902;8.212;2023-05-10T07:37:42;18.53;;;6.90;;
71629;SDS011;59479;51.902;8.212;2023-05-10T07:40:07;14.10;;;5.93;;
71629;SDS011;59479;51.902;8.212;2023-05-10T07:42:33;17.63;;;6.70;;
71629;SDS011;59479;51.902;8.212;2023-05-10T07:44:59;19.37;;;6.70;;
71629;SDS011;59479;51.902;8.212;2023-05-10T07:47:24;19.83;;;7.00;;
71629;SDS011;59479;51.902;8.212;2023-05-10T07:49:49;18.43;;;7.97;;
71629;SDS011;59479;51.902;8.212;2023-05-10T07:52:14;16.67;;;6.83;;
71629;SDS011;59479;51.902;8.212;2023-05-10T07:54:40;17.65;;;7.22;;
71629;SDS011;59479;51.902;8.212;2023-05-10T07:57:05;19.15;;;6.88;;
71629;SDS011;59479;51.902;8.212;2023-05-10T07:59:31;19.03;;;7.17;;
71629;SDS011;59479;51.902;8.212;2023-05-10T08:01:57;16.05;;;8.05;;
71629;SDS011;59479;51.902;8.212;2023-05-10T08:04:22;16.87;;;7.13;;
71629;SDS011;59479;51.902;8.212;2023-05-10T08:06:47;18.03;;;7.57;;
71629;SDS011;59479;51.902;8.212;2023-05-10T08:09:13;17.97;;;7.53;;
71629;SDS011;59479;51.902;8.212;2023-05-10T08:11:38;17.03;;;7.43;;
71629;SDS011;59479;51.902;8.212;2023-05-10T08:14:03;18.77;;;8.30;;
71629;SDS011;59479;51.902;8.212;2023-05-10T08:16:29;18.30;;;7.83;;
71629;SDS011;59479;51.902;8.212;2023-05-10T08:18:54;18.52;;;8.00;;
71629;SDS011;59479;51.902;8.212;2023-05-10T08:21:20;20.63;;;7.83;;
71629;SDS011;59479;51.902;8.212;2023-05-10T08:23:45;19.13;;;7.47;;
71629;SDS011;59479;51.902;8.212;2023-05-10T08:26:11;20.93;;;8.00;;
71629;SDS011;59479;51.902;8.212;2023-05-10T08:28:36;20.17;;;8.02;;
71629;SDS011;59479;51.902;8.212;2023-05-10T08:31:01;18.83;;;8.60;;
71629;SDS011;59479;51.902;8.212;2023-05-10T08:33:27;19.53;;;8.87;;
71629;SDS011;59479;51.902;8.212;2023-05-10T08:35:52;19.27;;;9.10;;
71629;SDS011;59479;51.902;8.212;2023-05-10T08:38:17;21.60;;;8.57;;
71629;SDS011;59479;51.902;8.212;2023-05-10T08:40:43;21.07;;;8.80;;
71629;SDS011;59479;51.902;8.212;2023-05-10T08:43:10;19.88;;;8.40;;
71629;SDS011;59479;51.902;8.212;2023-05-10T08:45:41;22.08;;;8.57;;
71629;SDS011;59479;51.902;8.212;2023-05-10T08:48:08;21.35;;;8.48;;
71629;SDS011;59479;51.902;8.212;2023-05-10T08:50:43;22.63;;;9.37;;
71629;SDS011;59479;51.902;8.212;2023-05-10T08:53:10;22.45;;;9.88;;
71629;SDS011;59479;51.902;8.212;2023-05-10T08:55:37;22.65;;;9.30;;
71629;SDS011;59479;51.902;8.212;2023-05-10T08:58:06;23.20;;;9.43;;
71629;SDS011;59479;51.902;8.212;2023-05-10T09:00:32;21.48;;;9.48;;
71629;SDS011;59479;51.902;8.212;2023-05-10T09:02:58;22.93;;;9.90;;
71629;SDS011;59479;51.902;8.212;2023-05-10T09:05:23;21.95;;;9.27;;
71629;SDS011;59479;51.902;8.212;2023-05-10T09:07:49;19.83;;;8.63;;
71629;SDS011;59479;51.902;8.212;2023-05-10T09:10:14;20.50;;;9.30;;
71629;SDS011;59479;51.902;8.212;2023-05-10T09:12:40;22.48;;;8.95;;
71629;SDS011;59479;51.902;8.212;2023-05-10T09:15:09;22.83;;;9.85;;
71629;SDS011;59479;51.902;8.212;2023-05-10T09:17:34;21.00;;;9.13;;
71629;SDS011;59479;51.902;8.212;2023-05-10T09:20:04;20.07;;;9.50;;
71629;SDS011;59479;51.902;8.212;2023-05-10T09:22:30;19.10;;;8.68;;
71629;SDS011;59479;51.902;8.212;2023-05-10T09:25:05;20.27;;;8.50;;
71629;SDS011;59479;51.902;8.212;2023-05-10T09:27:31;22.08;;;9.15;;
71629;SDS011;59479;51.902;8.212;2023-05-10T09:29:57;20.40;;;8.97;;
71629;SDS011;59479;51.902;8.212;2023-05-10T09:32:35;18.02;;;8.63;;
71629;SDS011;59479;51.902;8.212;2023-05-10T09:35:08;18.52;;;8.30;;
71629;SDS011;59479;51.902;8.212;2023-05-10T09:37:45;19.13;;;8.52;;
71629;SDS011;59479;51.902;8.212;2023-05-10T09:40:13;21.50;;;8.27;;
71629;SDS011;59479;51.902;8.212;2023-05-10T09:42:43;21.05;;;8.40;;
71629;SDS011;59479;51.902;8.212;2023-05-10T09:45:16;18.33;;;7.90;;
71629;SDS011;59479;51.902;8.212;2023-05-10T09:47:41;21.58;;;8.50;;
71629;SDS011;59479;51.902;8.212;2023-05-10T09:50:07;19.40;;;8.07;;
71629;SDS011;59479;51.902;8.212;2023-05-10T09:55:18;17.80;;;7.35;;
71629;SDS011;59479;51.902;8.212;2023-05-10T09:57:45;15.63;;;7.05;;
71629;SDS011;59479;51.902;8.212;2023-05-10T10:00:16;16.73;;;7.45;;
71629;SDS011;59479;51.902;8.212;2023-05-10T10:02:54;15.27;;;7.00;;
71629;SDS011;59479;51.902;8.212;2023-05-10T10:05:30;13.80;;;6.50;;
71629;SDS011;59479;51.902;8.212;2023-05-10T10:07:58;17.33;;;7.15;;
71629;SDS011;59479;51.902;8.212;2023-05-10T10:10:24;13.48;;;6.20;;
71629;SDS011;59479;51.902;8.212;2023-05-10T10:12:50;16.20;;;6.95;;
71629;SDS011;59479;51.902;8.212;2023-05-10T10:15:16;14.37;;;6.20;;
71629;SDS011;59479;51.902;8.212;2023-05-10T10:17:42;13.98;;;6.47;;
71629;SDS011;59479;51.902;8.212;2023-05-10T10:20:08;12.93;;;6.35;;
71629;SDS011;59479;51.902;8.212;2023-05-10T10:22:34;14.32;;;6.10;;
71629;SDS011;59479;51.902;8.212;2023-05-10T10:25:00;12.10;;;6.40;;
71629;SDS011;59479;51.902;8.212;2023-05-10T10:27:32;12.27;;;5.77;;
71629;SDS011;59479;51.902;8.212;2023-05-10T10:30:16;14.50;;;6.00;;
71629;SDS011;59479;51.902;8.212;2023-05-10T10:35:31;13.68;;;6.30;;
71629;SDS011;59479;51.902;8.212;2023-05-10T10:37:57;18.35;;;6.60;;
71629;SDS011;59479;51.902;8.212;2023-05-10T10:42:49;15.13;;;7.38;;
71629;SDS011;59479;51.902;8.212;2023-05-10T10:45:18;16.00;;;6.87;;
71629;SDS011;59479;51.902;8.212;2023-05-10T10:47:44;13.82;;;6.85;;
71629;SDS011;59479;51.902;8.212;2023-05-10T10:50:10;14.50;;;6.53;;
71629;SDS011;59479;51.902;8.212;2023-05-10T10:52:40;15.40;;;6.65;;
71629;SDS011;59479;51.902;8.212;2023-05-10T10:55:09;13.60;;;6.28;;
71629;SDS011;59479;51.902;8.212;2023-05-10T11:00:32;15.75;;;6.68;;
71629;SDS011;59479;51.902;8.212;2023-05-10T11:05:37;14.27;;;6.13;;
71629;SDS011;59479;51.902;8.212;2023-05-10T11:08:09;12.75;;;6.40;;
71629;SDS011;59479;51.902;8.212;2023-05-10T11:13:46;13.77;;;5.78;;
71629;SDS011;59479;51.902;8.212;2023-05-10T11:18:53;11.65;;;5.50;;
71629;SDS011;59479;51.902;8.212;2023-05-10T11:21:30;14.65;;;5.95;;
71629;SDS011;59479;51.902;8.212;2023-05-10T11:23:57;12.35;;;6.00;;
71629;SDS011;59479;51.902;8.212;2023-05-10T11:26:29;12.88;;;5.72;;
71629;SDS011;59479;51.902;8.212;2023-05-10T11:28:56;10.83;;;5.40;;
71629;SDS011;59479;51.902;8.212;2023-05-10T11:31:22;13.77;;;6.03;;
71629;SDS011;59479;51.902;8.212;2023-05-10T11:33:52;16.10;;;6.45;;
71629;SDS011;59479;51.902;8.212;2023-05-10T11:36:25;14.33;;;6.40;;
71629;SDS011;59479;51.902;8.212;2023-05-10T11:38:52;14.43;;;6.15;;
71629;SDS011;59479;51.902;8.212;2023-05-10T11:41:18;12.10;;;6.35;;
71629;SDS011;59479;51.902;8.212;2023-05-10T11:43:49;15.45;;;6.40;;
71629;SDS011;59479;51.902;8.212;2023-05-10T11:46:15;16.75;;;7.28;;
71629;SDS011;59479;51.902;8.212;2023-05-10T11:48:43;17.40;;;6.83;;
71629;SDS011;59479;51.902;8.212;2023-05-10T11:51:09;14.52;;;6.20;;
71629;SDS011;59479;51.902;8.212;2023-05-10T11:53:35;12.00;;;5.60;;
71629;SDS011;59479;51.902;8.212;2023-05-10T11:56:07;12.20;;;6.03;;
71629;SDS011;59479;51.902;8.212;2023-05-10T11:58:34;12.55;;;5.93;;
71629;SDS011;59479;51.902;8.212;2023-05-10T12:01:01;13.40;;;6.30;;
71629;SDS011;59479;51.902;8.212;2023-05-10T12:03:27;13.87;;;6.33;;
71629;SDS011;59479;51.902;8.212;2023-05-10T12:05:53;13.20;;;6.22;;
71629;SDS011;59479;51.902;8.212;2023-05-10T12:08:21;13.82;;;6.40;;
71629;SDS011;59479;51.902;8.212;2023-05-10T12:10:48;13.88;;;6.13;;
71629;SDS011;59479;51.902;8.212;2023-05-10T12:13:14;13.33;;;5.60;;
71629;SDS011;59479;51.902;8.212;2023-05-10T12:15:40;15.25;;;6.38;;
71629;SDS011;59479;51.902;8.212;2023-05-10T12:18:07;13.38;;;6.60;;
71629;SDS011;59479;51.902;8.212;2023-05-10T12:20:35;14.80;;;6.20;;
71629;SDS011;59479;51.902;8.212;2023-05-10T12:23:01;16.75;;;6.95;;
71629;SDS011;59479;51.902;8.212;2023-05-10T12:25:32;14.23;;;6.85;;
71629;SDS011;59479;51.902;8.212;2023-05-10T12:27:59;13.67;;;6.70;;
71629;SDS011;59479;51.902;8.212;2023-05-10T12:30:28;12.82;;;6.03;;
71629;SDS011;59479;51.902;8.212;2023-05-10T12:32:59;16.60;;;7.28;;
71629;SDS011;59479;51.902;8.212;2023-05-10T12:35:32;16.42;;;6.60;;
71629;SDS011;59479;51.902;8.212;2023-05-10T12:37:58;14.70;;;6.93;;
71629;SDS011;59479;51.902;8.212;2023-05-10T12:40:23;15.40;;;6.50;;
71629;SDS011;59479;51.902;8.212;2023-05-10T12:42:48;15.77;;;6.70;;
71629;SDS011;59479;51.902;8.212;2023-05-10T12:45:14;13.93;;;6.87;;
71629;SDS011;59479;51.902;8.212;2023-05-10T12:47:39;16.60;;;7.30;;
71629;SDS011;59479;51.902;8.212;2023-05-10T12:50:05;14.10;;;6.60;;
71629;SDS011;59479;51.902;8.212;2023-05-10T12:52:31;13.73;;;6.18;;
71629;SDS011;59479;51.902;8.212;2023-05-10T12:54:59;13.90;;;7.05;;
71629;SDS011;59479;51.902;8.212;2023-05-10T12:57:25;15.77;;;7.17;;
71629;SDS011;59479;51.902;8.212;2023-05-10T12:59:52;13.88;;;6.15;;
71629;SDS011;59479;51.902;8.212;2023-05-10T13:02:17;11.80;;;5.83;;
71629;SDS011;59479;51.902;8.212;2023-05-10T13:04:46;11.15;;;5.63;;
71629;SDS011;59479;51.902;8.212;2023-05-10T13:07:12;13.48;;;6.05;;
71629;SDS011;59479;51.902;8.212;2023-05-10T13:09:37;15.53;;;7.10;;
71629;SDS011;59479;51.902;8.212;2023-05-10T13:12:03;13.80;;;6.40;;
71629;SDS011;59479;51.902;8.212;2023-05-10T13:14:29;13.23;;;5.90;;
71629;SDS011;59479;51.902;8.212;2023-05-10T13:16:55;16.30;;;6.60;;
71629;SDS011;59479;51.902;8.212;2023-05-10T13:19:20;14.25;;;6.45;;
71629;SDS011;59479;51.902;8.212;2023-05-10T13:21:46;14.63;;;6.57;;
71629;SDS011;59479;51.902;8.212;2023-05-10T13:24:11;14.37;;;6.50;;
71629;SDS011;59479;51.902;8.212;2023-05-10T13:26:39;15.98;;;7.32;;
71629;SDS011;59479;51.902;8.212;2023-05-10T13:29:07;14.52;;;6.97;;
71629;SDS011;59479;51.902;8.212;2023-05-10T13:31:32;14.33;;;6.77;;
71629;SDS011;59479;51.902;8.212;2023-05-10T13:33:58;15.35;;;7.25;;
71629;SDS011;59479;51.902;8.212;2023-05-10T13:36:23;14.53;;;6.77;;
71629;SDS011;59479;51.902;8.212;2023-05-10T13:38:49;16.20;;;6.90;;
71629;SDS011;59479;51.902;8.212;2023-05-10T13:41:14;17.50;;;7.67;;
71629;SDS011;59479;51.902;8.212;2023-05-10T13:43:39;14.23;;;6.27;;
71629;SDS011;59479;51.902;8.212;2023-05-10T13:46:05;14.30;;;6.88;;
71629;SDS011;59479;51.902;8.212;2023-05-10T13:48:30;15.25;;;7.28;;
71629;SDS011;59479;51.902;8.212;2023-05-10T13:50:55;15.13;;;8.03;;
71629;SDS011;59479;51.902;8.212;2023-05-10T13:53:21;16.37;;;7.30;;
71629;SDS011;59479;51.902;8.212;2023-05-10T13:55:47;15.57;;;7.15;;
71629;SDS011;59479;51.902;8.212;2023-05-10T13:58:12;14.83;;;6.77;;
71629;SDS011;59479;51.902;8.212;2023-05-10T14:00:37;14.50;;;7.27;;
71629;SDS011;59479;51.902;8.212;2023-05-10T14:03:03;16.83;;;7.77;;
71629;SDS011;59479;51.902;8.212;2023-05-10T14:05:29;15.80;;;7.70;;
71629;SDS011;59479;51.902;8.212;2023-05-10T14:07:55;15.53;;;7.27;;
71629;SDS011;59479;51.902;8.212;2023-05-10T14:10:20;17.20;;;7.60;;
71629;SDS011;59479;51.902;8.212;2023-05-10T14:12:45;15.83;;;6.60;;
71629;SDS011;59479;51.902;8.212;2023-05-10T14:15:11;16.33;;;7.07;;
71629;SDS011;59479;51.902;8.212;2023-05-10T14:17:36;17.27;;;7.03;;
71629;SDS011;59479;51.902;8.212;2023-05-10T14:20:02;14.97;;;6.97;;
71629;SDS011;59479;51.902;8.212;2023-05-10T14:22:28;15.57;;;6.47;;
71629;SDS011;59479;51.902;8.212;2023-05-10T14:24:54;14.17;;;6.50;;
71629;SDS011;59479;51.902;8.212;2023-05-10T14:27:20;13.68;;;6.03;;
71629;SDS011;59479;51.902;8.212;2023-05-10T14:29:45;15.10;;;7.00;;
71629;SDS011;59479;51.902;8.212;2023-05-10T14:32:10;16.07;;;6.30;;
71629;SDS011;59479;51.902;8.212;2023-05-10T14:34:36;16.03;;;7.30;;
71629;SDS011;59479;51.902;8.212;2023-05-10T14:37:01;15.30;;;6.97;;
71629;SDS011;59479;51.902;8.212;2023-05-10T14:39:26;18.57;;;7.63;;
71629;SDS011;59479;51.902;8.212;2023-05-10T14:41:54;14.52;;;6.82;;
71629;SDS011;59479;51.902;8.212;2023-05-10T14:44:20;14.27;;;7.20;;
71629;SDS011;59479;51.902;8.212;2023-05-10T14:46:45;14.55;;;6.90;;
71629;SDS011;59479;51.902;8.212;2023-05-10T14:49:10;16.17;;;6.47;;
71629;SDS011;59479;51.902;8.212;2023-05-10T14:51:36;13.67;;;6.67;;
71629;SDS011;59479;51.902;8.212;2023-05-10T14:54:01;15.50;;;7.23;;
71629;SDS011;59479;51.902;8.212;2023-05-10T14:56:27;14.60;;;7.15;;
71629;SDS011;59479;51.902;8.212;2023-05-10T14:58:52;15.93;;;7.23;;
71629;SDS011;59479;51.902;8.212;2023-05-10T15:01:18;15.80;;;7.60;;
71629;SDS011;59479;51.902;8.212;2023-05-10T15:03:44;18.92;;;6.95;;
71629;SDS011;59479;51.902;8.212;2023-05-10T15:06:09;17.90;;;7.50;;
71629;SDS011;59479;51.902;8.212;2023-05-10T15:08:35;15.10;;;7.30;;
71629;SDS011;59479;51.902;8.212;2023-05-10T15:11:00;14.90;;;7.43;;
71629;SDS011;59479;51.902;8.212;2023-05-10T15:13:26;14.93;;;6.87;;
71629;SDS011;59479;51.902;8.212;2023-05-10T15:15:51;16.07;;;7.30;;
71629;SDS011;59479;51.902;8.212;2023-05-10T15:18:17;14.93;;;7.40;;